sensor_id;sensor_type;location;lat;lon;timestamp;P1;P2;P0
49914;PMS5003;35806;47.958;13.158;2023-05-06T00:00:37;5;4;
49914;PMS5003;35806;47.958;13.158;2023-05-06T00:03:05;5;4;
49914;PMS5003;35806;47.958;13.158;2023-05-06T00:05:32;4;4;
49914;PMS5003;35806;47.958;13.158;2023-05-06T00:07:59;4;4;
49914;PMS5003;35806;47.958;13.158;2023-05-06T00:10:27;6;6;
49914;PMS5003;35806;47.958;13.158;2023-05-06T00:12:55;3;3;
49914;PMS5003;35806;47.958;13.158;2023-05-06T00:15:22;4;4;
49914;PMS5003;35806;47.958;13.158;2023-05-06T00:17:50;5;5;
49914;PMS5003;35806;47.958;13.158;2023-05-06T00:20:17;4;4;
49914;PMS5003;35806;47.958;13.158;2023-05-06T00:22:45;4;4;
49914;PMS5003;35806;47.958;13.158;2023-05-06T00:25:12;3;3;
49914;PMS5003;35806;47.958;13.158;2023-05-06T00:27:40;4;4;
49914;PMS5003;35806;47.958;13.158;2023-05-06T00:30:08;4;4;
49914;PMS5003;35806;47.958;13.158;2023-05-06T00:32:37;5;5;
49914;PMS5003;35806;47.958;13.158;2023-05-06T00:35:05;4;4;
49914;PMS5003;35806;47.958;13.158;2023-05-06T00:37:33;6;6;
49914;PMS5003;35806;47.958;13.158;2023-05-06T00:40:00;4;3;
49914;PMS5003;35806;47.958;13.158;2023-05-06T00:42:28;6;6;
49914;PMS5003;35806;47.958;13.158;2023-05-06T00:44:55;5;5;
49914;PMS5003;35806;47.958;13.158;2023-05-06T00:47:23;6;6;
49914;PMS5003;35806;47.958;13.158;2023-05-06T00:49:50;6;5;
49914;PMS5003;35806;47.958;13.158;2023-05-06T00:52:18;7;7;
49914;PMS5003;35806;47.958;13.158;2023-05-06T00:54:45;5;5;
49914;PMS5003;35806;47.958;13.158;2023-05-06T00:57:13;5;5;
49914;PMS5003;35806;47.958;13.158;2023-05-06T00:59:40;5;5;
49914;PMS5003;35806;47.958;13.158;2023-05-06T01:15:37;6;4;
49914;PMS5003;35806;47.958;13.158;2023-05-06T01:18:12;4;4;
49914;PMS5003;35806;47.958;13.158;2023-05-06T01:20:43;4;4;
49914;PMS5003;35806;47.958;13.158;2023-05-06T01:23:22;4;4;
49914;PMS5003;35806;47.958;13.158;2023-05-06T01:25:49;5;5;
49914;PMS5003;35806;47.958;13.158;2023-05-06T01:28:17;4;4;
49914;PMS5003;35806;47.958;13.158;2023-05-06T01:30:47;5;4;
49914;PMS5003;35806;47.958;13.158;2023-05-06T01:33:22;4;3;
49914;PMS5003;35806;47.958;13.158;2023-05-06T01:35:57;5;4;
49914;PMS5003;35806;47.958;13.158;2023-05-06T01:38:36;4;4;
49914;PMS5003;35806;47.958;13.158;2023-05-06T01:41:12;4;4;
49914;PMS5003;35806;47.958;13.158;2023-05-06T01:43:42;4;4;
49914;PMS5003;35806;47.958;13.158;2023-05-06T01:46:14;4;4;
49914;PMS5003;35806;47.958;13.158;2023-05-06T01:48:45;3;3;
49914;PMS5003;35806;47.958;13.158;2023-05-06T01:51:15;3;3;
49914;PMS5003;35806;47.958;13.158;2023-05-06T01:53:42;2;2;
49914;PMS5003;35806;47.958;13.158;2023-05-06T01:56:09;4;4;
49914;PMS5003;35806;47.958;13.158;2023-05-06T01:58:37;3;3;
49914;PMS5003;35806;47.958;13.158;2023-05-06T02:01:04;3;3;
49914;PMS5003;35806;47.958;13.158;2023-05-06T02:03:32;3;3;
49914;PMS5003;35806;47.958;13.158;2023-05-06T02:05:59;4;4;
49914;PMS5003;35806;47.958;13.158;2023-05-06T02:08:27;4;4;
49914;PMS5003;35806;47.958;13.158;2023-05-06T02:10:54;3;3;
49914;PMS5003;35806;47.958;13.158;2023-05-06T02:13:22;5;4;
49914;PMS5003;35806;47.958;13.158;2023-05-06T02:15:51;5;5;
49914;PMS5003;35806;47.958;13.158;2023-05-06T02:18:18;3;3;
49914;PMS5003;35806;47.958;13.158;2023-05-06T02:20:45;4;3;
49914;PMS5003;35806;47.958;13.158;2023-05-06T02:23:13;2;2;
49914;PMS5003;35806;47.958;13.158;2023-05-06T02:25:41;3;3;
49914;PMS5003;35806;47.958;13.158;2023-05-06T02:28:09;1;1;
49914;PMS5003;35806;47.958;13.158;2023-05-06T02:30:36;2;2;
49914;PMS5003;35806;47.958;13.158;2023-05-06T02:33:04;4;4;
49914;PMS5003;35806;47.958;13.158;2023-05-06T02:35:32;2;2;
49914;PMS5003;35806;47.958;13.158;2023-05-06T02:37:59;4;4;
49914;PMS5003;35806;47.958;13.158;2023-05-06T02:40:27;2;2;
49914;PMS5003;35806;47.958;13.158;2023-05-06T02:42:54;2;2;
49914;PMS5003;35806;47.958;13.158;2023-05-06T02:45:22;2;2;
49914;PMS5003;35806;47.958;13.158;2023-05-06T02:47:49;2;2;
49914;PMS5003;35806;47.958;13.158;2023-05-06T02:50:17;1;1;
49914;PMS5003;35806;47.958;13.158;2023-05-06T02:52:44;3;3;
49914;PMS5003;35806;47.958;13.158;2023-05-06T02:55:12;2;2;
49914;PMS5003;35806;47.958;13.158;2023-05-06T02:57:40;4;3;
49914;PMS5003;35806;47.958;13.158;2023-05-06T03:00:07;3;3;
49914;PMS5003;35806;47.958;13.158;2023-05-06T03:02:35;2;2;
49914;PMS5003;35806;47.958;13.158;2023-05-06T03:05:03;2;2;
49914;PMS5003;35806;47.958;13.158;2023-05-06T03:07:31;2;2;
49914;PMS5003;35806;47.958;13.158;2023-05-06T03:10:00;1;1;
49914;PMS5003;35806;47.958;13.158;2023-05-06T03:12:27;2;2;
49914;PMS5003;35806;47.958;13.158;2023-05-06T03:14:55;4;4;
49914;PMS5003;35806;47.958;13.158;2023-05-06T03:17:21;2;2;
49914;PMS5003;35806;47.958;13.158;2023-05-06T03:19:49;4;4;
49914;PMS5003;35806;47.958;13.158;2023-05-06T03:22:16;2;2;
49914;PMS5003;35806;47.958;13.158;2023-05-06T03:24:42;3;3;
49914;PMS5003;35806;47.958;13.158;2023-05-06T03:27:10;2;2;
49914;PMS5003;35806;47.958;13.158;2023-05-06T03:29:37;3;3;
49914;PMS5003;35806;47.958;13.158;2023-05-06T03:32:05;3;2;
49914;PMS5003;35806;47.958;13.158;2023-05-06T03:34:33;2;2;
49914;PMS5003;35806;47.958;13.158;2023-05-06T03:37:00;2;2;
49914;PMS5003;35806;47.958;13.158;2023-05-06T03:39:27;2;2;
49914;PMS5003;35806;47.958;13.158;2023-05-06T03:41:54;4;4;
49914;PMS5003;35806;47.958;13.158;2023-05-06T03:44:22;6;4;
49914;PMS5003;35806;47.958;13.158;2023-05-06T03:46:49;3;3;
49914;PMS5003;35806;47.958;13.158;2023-05-06T03:49:17;3;3;
49914;PMS5003;35806;47.958;13.158;2023-05-06T03:51:44;3;3;
49914;PMS5003;35806;47.958;13.158;2023-05-06T03:54:11;1;1;
49914;PMS5003;35806;47.958;13.158;2023-05-06T03:56:39;3;3;
49914;PMS5003;35806;47.958;13.158;2023-05-06T03:59:06;3;3;
49914;PMS5003;35806;47.958;13.158;2023-05-06T04:01:34;4;3;
49914;PMS5003;35806;47.958;13.158;2023-05-06T04:04:01;3;2;
49914;PMS5003;35806;47.958;13.158;2023-05-06T04:06:29;4;3;
49914;PMS5003;35806;47.958;13.158;2023-05-06T04:08:56;3;3;
49914;PMS5003;35806;47.958;13.158;2023-05-06T04:11:24;3;3;
49914;PMS5003;35806;47.958;13.158;2023-05-06T04:13:51;2;2;
49914;PMS5003;35806;47.958;13.158;2023-05-06T04:16:19;4;2;
49914;PMS5003;35806;47.958;13.158;2023-05-06T04:18:47;2;2;
49914;PMS5003;35806;47.958;13.158;2023-05-06T04:21:14;3;3;
49914;PMS5003;35806;47.958;13.158;2023-05-06T04:23:42;4;4;
49914;PMS5003;35806;47.958;13.158;2023-05-06T04:26:29;4;2;
49914;PMS5003;35806;47.958;13.158;2023-05-06T04:28:57;3;3;
49914;PMS5003;35806;47.958;13.158;2023-05-06T04:31:24;3;3;
49914;PMS5003;35806;47.958;13.158;2023-05-06T04:33:52;2;2;
49914;PMS5003;35806;47.958;13.158;2023-05-06T04:36:18;1;1;
49914;PMS5003;35806;47.958;13.158;2023-05-06T04:38:47;3;3;
49914;PMS5003;35806;47.958;13.158;2023-05-06T04:41:14;3;3;
49914;PMS5003;35806;47.958;13.158;2023-05-06T04:43:41;1;1;
49914;PMS5003;35806;47.958;13.158;2023-05-06T04:46:09;2;2;
49914;PMS5003;35806;47.958;13.158;2023-05-06T04:48:37;2;2;
49914;PMS5003;35806;47.958;13.158;2023-05-06T04:51:04;4;2;
49914;PMS5003;35806;47.958;13.158;2023-05-06T04:53:32;3;3;
49914;PMS5003;35806;47.958;13.158;2023-05-06T04:56:00;3;2;
49914;PMS5003;35806;47.958;13.158;2023-05-06T04:58:27;2;2;
49914;PMS5003;35806;47.958;13.158;2023-05-06T05:00:55;2;2;
49914;PMS5003;35806;47.958;13.158;2023-05-06T05:03:22;4;4;
49914;PMS5003;35806;47.958;13.158;2023-05-06T05:05:50;3;1;
49914;PMS5003;35806;47.958;13.158;2023-05-06T05:08:17;3;2;
49914;PMS5003;35806;47.958;13.158;2023-05-06T05:10:45;3;3;
49914;PMS5003;35806;47.958;13.158;2023-05-06T05:13:12;2;2;
49914;PMS5003;35806;47.958;13.158;2023-05-06T05:15:45;5;4;
49914;PMS5003;35806;47.958;13.158;2023-05-06T05:18:22;3;3;
49914;PMS5003;35806;47.958;13.158;2023-05-06T05:20:49;2;2;
49914;PMS5003;35806;47.958;13.158;2023-05-06T05:23:16;2;2;
49914;PMS5003;35806;47.958;13.158;2023-05-06T05:25:43;2;2;
49914;PMS5003;35806;47.958;13.158;2023-05-06T05:28:10;3;3;
49914;PMS5003;35806;47.958;13.158;2023-05-06T05:30:38;4;4;
49914;PMS5003;35806;47.958;13.158;2023-05-06T05:33:05;4;3;
49914;PMS5003;35806;47.958;13.158;2023-05-06T05:35:32;5;5;
49914;PMS5003;35806;47.958;13.158;2023-05-06T05:38:00;4;2;
49914;PMS5003;35806;47.958;13.158;2023-05-06T05:40:27;4;3;
49914;PMS5003;35806;47.958;13.158;2023-05-06T05:42:55;3;3;
49914;PMS5003;35806;47.958;13.158;2023-05-06T05:45:22;4;4;
49914;PMS5003;35806;47.958;13.158;2023-05-06T05:47:50;2;2;
49914;PMS5003;35806;47.958;13.158;2023-05-06T05:50:22;2;2;
49914;PMS5003;35806;47.958;13.158;2023-05-06T05:52:50;2;2;
49914;PMS5003;35806;47.958;13.158;2023-05-06T05:55:17;3;3;
49914;PMS5003;35806;47.958;13.158;2023-05-06T05:57:44;3;3;
49914;PMS5003;35806;47.958;13.158;2023-05-06T06:00:12;2;2;
49914;PMS5003;35806;47.958;13.158;2023-05-06T06:02:40;2;2;
49914;PMS5003;35806;47.958;13.158;2023-05-06T06:05:08;8;8;
49914;PMS5003;35806;47.958;13.158;2023-05-06T06:07:35;5;5;
49914;PMS5003;35806;47.958;13.158;2023-05-06T06:10:03;3;3;
49914;PMS5003;35806;47.958;13.158;2023-05-06T06:12:31;3;3;
49914;PMS5003;35806;47.958;13.158;2023-05-06T06:14:59;3;3;
49914;PMS5003;35806;47.958;13.158;2023-05-06T06:17:26;3;3;
49914;PMS5003;35806;47.958;13.158;2023-05-06T06:19:53;4;4;
49914;PMS5003;35806;47.958;13.158;2023-05-06T06:22:20;4;4;
49914;PMS5003;35806;47.958;13.158;2023-05-06T06:24:48;8;8;
49914;PMS5003;35806;47.958;13.158;2023-05-06T06:27:15;3;3;
49914;PMS5003;35806;47.958;13.158;2023-05-06T06:29:42;3;3;
49914;PMS5003;35806;47.958;13.158;2023-05-06T06:32:10;5;5;
49914;PMS5003;35806;47.958;13.158;2023-05-06T06:34:37;5;5;
49914;PMS5003;35806;47.958;13.158;2023-05-06T06:37:05;5;5;
49914;PMS5003;35806;47.958;13.158;2023-05-06T06:39:32;2;2;
49914;PMS5003;35806;47.958;13.158;2023-05-06T06:42:00;4;4;
49914;PMS5003;35806;47.958;13.158;2023-05-06T06:44:27;4;3;
49914;PMS5003;35806;47.958;13.158;2023-05-06T06:46:55;5;5;
49914;PMS5003;35806;47.958;13.158;2023-05-06T06:49:22;4;4;
49914;PMS5003;35806;47.958;13.158;2023-05-06T06:51:50;4;4;
49914;PMS5003;35806;47.958;13.158;2023-05-06T06:54:17;4;4;
49914;PMS5003;35806;47.958;13.158;2023-05-06T06:56:45;3;3;
49914;PMS5003;35806;47.958;13.158;2023-05-06T06:59:12;3;3;
49914;PMS5003;35806;47.958;13.158;2023-05-06T07:01:40;4;4;
49914;PMS5003;35806;47.958;13.158;2023-05-06T07:04:08;5;5;
49914;PMS5003;35806;47.958;13.158;2023-05-06T07:06:35;3;3;
49914;PMS5003;35806;47.958;13.158;2023-05-06T07:09:03;5;5;
49914;PMS5003;35806;47.958;13.158;2023-05-06T07:11:31;5;5;
49914;PMS5003;35806;47.958;13.158;2023-05-06T07:13:58;5;4;
49914;PMS5003;35806;47.958;13.158;2023-05-06T07:16:25;5;4;
49914;PMS5003;35806;47.958;13.158;2023-05-06T07:18:53;6;4;
49914;PMS5003;35806;47.958;13.158;2023-05-06T07:21:20;4;4;
49914;PMS5003;35806;47.958;13.158;2023-05-06T07:23:48;5;5;
49914;PMS5003;35806;47.958;13.158;2023-05-06T07:26:15;5;5;
49914;PMS5003;35806;47.958;13.158;2023-05-06T07:28:42;6;6;
49914;PMS5003;35806;47.958;13.158;2023-05-06T07:31:10;6;6;
49914;PMS5003;35806;47.958;13.158;2023-05-06T07:33:37;4;4;
49914;PMS5003;35806;47.958;13.158;2023-05-06T07:36:05;6;6;
49914;PMS5003;35806;47.958;13.158;2023-05-06T07:38:33;6;5;
49914;PMS5003;35806;47.958;13.158;2023-05-06T07:41:00;5;5;
49914;PMS5003;35806;47.958;13.158;2023-05-06T07:43:28;7;7;
49914;PMS5003;35806;47.958;13.158;2023-05-06T07:45:55;6;6;
49914;PMS5003;35806;47.958;13.158;2023-05-06T07:48:23;4;4;
49914;PMS5003;35806;47.958;13.158;2023-05-06T07:50:51;6;6;
49914;PMS5003;35806;47.958;13.158;2023-05-06T07:53:18;6;6;
49914;PMS5003;35806;47.958;13.158;2023-05-06T07:55:45;5;5;
49914;PMS5003;35806;47.958;13.158;2023-05-06T07:58:13;5;5;
49914;PMS5003;35806;47.958;13.158;2023-05-06T08:00:41;5;5;
49914;PMS5003;35806;47.958;13.158;2023-05-06T08:03:08;7;7;
49914;PMS5003;35806;47.958;13.158;2023-05-06T08:05:36;5;5;
49914;PMS5003;35806;47.958;13.158;2023-05-06T08:08:03;9;6;
49914;PMS5003;35806;47.958;13.158;2023-05-06T08:10:31;5;4;
49914;PMS5003;35806;47.958;13.158;2023-05-06T08:12:58;8;7;
49914;PMS5003;35806;47.958;13.158;2023-05-06T08:15:26;8;8;
49914;PMS5003;35806;47.958;13.158;2023-05-06T08:17:53;7;7;
49914;PMS5003;35806;47.958;13.158;2023-05-06T08:20:26;7;7;
49914;PMS5003;35806;47.958;13.158;2023-05-06T08:22:53;8;6;
49914;PMS5003;35806;47.958;13.158;2023-05-06T08:25:21;9;7;
49914;PMS5003;35806;47.958;13.158;2023-05-06T08:27:48;7;7;
49914;PMS5003;35806;47.958;13.158;2023-05-06T08:30:16;7;7;
49914;PMS5003;35806;47.958;13.158;2023-05-06T08:32:43;8;8;
49914;PMS5003;35806;47.958;13.158;2023-05-06T08:35:10;8;7;
49914;PMS5003;35806;47.958;13.158;2023-05-06T08:37:39;9;9;
49914;PMS5003;35806;47.958;13.158;2023-05-06T08:40:08;8;8;
49914;PMS5003;35806;47.958;13.158;2023-05-06T08:42:44;6;6;
49914;PMS5003;35806;47.958;13.158;2023-05-06T08:45:13;6;6;
49914;PMS5003;35806;47.958;13.158;2023-05-06T08:47:42;7;7;
49914;PMS5003;35806;47.958;13.158;2023-05-06T08:50:10;5;5;
49914;PMS5003;35806;47.958;13.158;2023-05-06T08:52:37;7;7;
49914;PMS5003;35806;47.958;13.158;2023-05-06T08:55:05;11;8;
49914;PMS5003;35806;47.958;13.158;2023-05-06T08:57:34;10;10;
49914;PMS5003;35806;47.958;13.158;2023-05-06T09:00:03;10;10;
49914;PMS5003;35806;47.958;13.158;2023-05-06T09:02:32;10;10;
49914;PMS5003;35806;47.958;13.158;2023-05-06T09:04:59;9;9;
49914;PMS5003;35806;47.958;13.158;2023-05-06T09:07:28;8;8;
49914;PMS5003;35806;47.958;13.158;2023-05-06T09:09:55;8;8;
49914;PMS5003;35806;47.958;13.158;2023-05-06T09:12:22;7;7;
49914;PMS5003;35806;47.958;13.158;2023-05-06T09:14:50;7;7;
49914;PMS5003;35806;47.958;13.158;2023-05-06T09:17:18;8;8;
49914;PMS5003;35806;47.958;13.158;2023-05-06T09:19:47;8;8;
49914;PMS5003;35806;47.958;13.158;2023-05-06T09:22:14;8;8;
49914;PMS5003;35806;47.958;13.158;2023-05-06T09:24:42;9;8;
49914;PMS5003;35806;47.958;13.158;2023-05-06T09:27:10;11;8;
49914;PMS5003;35806;47.958;13.158;2023-05-06T09:29:38;8;8;
49914;PMS5003;35806;47.958;13.158;2023-05-06T09:32:23;9;9;
49914;PMS5003;35806;47.958;13.158;2023-05-06T09:34:51;9;8;
49914;PMS5003;35806;47.958;13.158;2023-05-06T09:37:18;9;7;
49914;PMS5003;35806;47.958;13.158;2023-05-06T09:39:46;7;7;
49914;PMS5003;35806;47.958;13.158;2023-05-06T09:42:13;10;8;
49914;PMS5003;35806;47.958;13.158;2023-05-06T09:44:42;8;8;
49914;PMS5003;35806;47.958;13.158;2023-05-06T09:47:10;13;11;
49914;PMS5003;35806;47.958;13.158;2023-05-06T09:49:37;10;9;
49914;PMS5003;35806;47.958;13.158;2023-05-06T09:52:05;9;9;
49914;PMS5003;35806;47.958;13.158;2023-05-06T09:54:32;10;10;
49914;PMS5003;35806;47.958;13.158;2023-05-06T09:57:01;9;8;
49914;PMS5003;35806;47.958;13.158;2023-05-06T09:59:30;13;10;
49914;PMS5003;35806;47.958;13.158;2023-05-06T10:02:03;10;9;
49914;PMS5003;35806;47.958;13.158;2023-05-06T10:04:31;10;10;
49914;PMS5003;35806;47.958;13.158;2023-05-06T10:07:00;12;12;
49914;PMS5003;35806;47.958;13.158;2023-05-06T10:09:29;11;11;
49914;PMS5003;35806;47.958;13.158;2023-05-06T10:11:56;11;9;
49914;PMS5003;35806;47.958;13.158;2023-05-06T10:14:24;10;10;
49914;PMS5003;35806;47.958;13.158;2023-05-06T10:16:52;12;10;
49914;PMS5003;35806;47.958;13.158;2023-05-06T10:19:21;11;11;
49914;PMS5003;35806;47.958;13.158;2023-05-06T10:21:51;13;12;
49914;PMS5003;35806;47.958;13.158;2023-05-06T10:24:27;14;12;
49914;PMS5003;35806;47.958;13.158;2023-05-06T10:26:59;13;11;
49914;PMS5003;35806;47.958;13.158;2023-05-06T10:29:30;15;13;
49914;PMS5003;35806;47.958;13.158;2023-05-06T10:32:02;11;10;
49914;PMS5003;35806;47.958;13.158;2023-05-06T10:34:32;12;12;
49914;PMS5003;35806;47.958;13.158;2023-05-06T10:37:06;12;12;
49914;PMS5003;35806;47.958;13.158;2023-05-06T10:39:35;11;11;
49914;PMS5003;35806;47.958;13.158;2023-05-06T10:42:02;12;12;
49914;PMS5003;35806;47.958;13.158;2023-05-06T10:45:04;12;11;
49914;PMS5003;35806;47.958;13.158;2023-05-06T10:48:05;13;9;
49914;PMS5003;35806;47.958;13.158;2023-05-06T10:50:32;9;9;
49914;PMS5003;35806;47.958;13.158;2023-05-06T10:53:00;11;11;
49914;PMS5003;35806;47.958;13.158;2023-05-06T10:55:28;10;10;
49914;PMS5003;35806;47.958;13.158;2023-05-06T10:57:59;9;9;
49914;PMS5003;35806;47.958;13.158;2023-05-06T11:00:30;10;9;
49914;PMS5003;35806;47.958;13.158;2023-05-06T11:03:00;10;10;
49914;PMS5003;35806;47.958;13.158;2023-05-06T11:05:28;11;10;
49914;PMS5003;35806;47.958;13.158;2023-05-06T11:08:13;9;9;
49914;PMS5003;35806;47.958;13.158;2023-05-06T11:10:47;12;12;
49914;PMS5003;35806;47.958;13.158;2023-05-06T11:13:19;8;8;
49914;PMS5003;35806;47.958;13.158;2023-05-06T11:15:49;11;11;
49914;PMS5003;35806;47.958;13.158;2023-05-06T11:18:49;9;9;
49914;PMS5003;35806;47.958;13.158;2023-05-06T11:21:52;8;8;
49914;PMS5003;35806;47.958;13.158;2023-05-06T11:24:21;10;8;
49914;PMS5003;35806;47.958;13.158;2023-05-06T11:26:50;8;8;
49914;PMS5003;35806;47.958;13.158;2023-05-06T11:29:18;9;8;
49914;PMS5003;35806;47.958;13.158;2023-05-06T11:31:46;10;10;
49914;PMS5003;35806;47.958;13.158;2023-05-06T11:34:19;10;10;
49914;PMS5003;35806;47.958;13.158;2023-05-06T11:36:51;15;15;
49914;PMS5003;35806;47.958;13.158;2023-05-06T11:39:20;10;10;
49914;PMS5003;35806;47.958;13.158;2023-05-06T11:41:48;12;10;
49914;PMS5003;35806;47.958;13.158;2023-05-06T11:44:25;8;8;
49914;PMS5003;35806;47.958;13.158;2023-05-06T11:46:56;10;9;
49914;PMS5003;35806;47.958;13.158;2023-05-06T11:49:25;10;9;
49914;PMS5003;35806;47.958;13.158;2023-05-06T11:51:53;8;8;
49914;PMS5003;35806;47.958;13.158;2023-05-06T11:54:21;6;6;
49914;PMS5003;35806;47.958;13.158;2023-05-06T11:56:51;10;9;
49914;PMS5003;35806;47.958;13.158;2023-05-06T11:59:26;8;8;
49914;PMS5003;35806;47.958;13.158;2023-05-06T12:01:56;10;9;
49914;PMS5003;35806;47.958;13.158;2023-05-06T12:04:25;8;8;
49914;PMS5003;35806;47.958;13.158;2023-05-06T12:06:52;12;12;
49914;PMS5003;35806;47.958;13.158;2023-05-06T12:09:20;8;8;
49914;PMS5003;35806;47.958;13.158;2023-05-06T12:11:48;8;8;
49914;PMS5003;35806;47.958;13.158;2023-05-06T12:14:16;8;8;
49914;PMS5003;35806;47.958;13.158;2023-05-06T12:16:44;9;9;
49914;PMS5003;35806;47.958;13.158;2023-05-06T12:19:12;11;9;
49914;PMS5003;35806;47.958;13.158;2023-05-06T12:21:42;8;7;
49914;PMS5003;35806;47.958;13.158;2023-05-06T12:24:10;6;6;
49914;PMS5003;35806;47.958;13.158;2023-05-06T12:26:41;6;6;
49914;PMS5003;35806;47.958;13.158;2023-05-06T12:29:10;6;6;
49914;PMS5003;35806;47.958;13.158;2023-05-06T12:31:38;9;9;
49914;PMS5003;35806;47.958;13.158;2023-05-06T12:34:06;7;6;
49914;PMS5003;35806;47.958;13.158;2023-05-06T12:36:38;8;8;
49914;PMS5003;35806;47.958;13.158;2023-05-06T12:39:06;7;7;
49914;PMS5003;35806;47.958;13.158;2023-05-06T12:41:34;8;8;
49914;PMS5003;35806;47.958;13.158;2023-05-06T12:44:03;5;5;
49914;PMS5003;35806;47.958;13.158;2023-05-06T12:46:54;7;7;
49914;PMS5003;35806;47.958;13.158;2023-05-06T12:49:22;10;10;
49914;PMS5003;35806;47.958;13.158;2023-05-06T12:52:04;10;10;
49914;PMS5003;35806;47.958;13.158;2023-05-06T12:54:31;10;8;
49914;PMS5003;35806;47.958;13.158;2023-05-06T12:56:59;8;8;
49914;PMS5003;35806;47.958;13.158;2023-05-06T12:59:31;9;9;
49914;PMS5003;35806;47.958;13.158;2023-05-06T13:01:58;9;7;
49914;PMS5003;35806;47.958;13.158;2023-05-06T13:04:26;9;9;
49914;PMS5003;35806;47.958;13.158;2023-05-06T13:06:53;12;12;
49914;PMS5003;35806;47.958;13.158;2023-05-06T13:09:20;9;9;
49914;PMS5003;35806;47.958;13.158;2023-05-06T13:11:48;7;6;
49914;PMS5003;35806;47.958;13.158;2023-05-06T13:14:15;10;8;
49914;PMS5003;35806;47.958;13.158;2023-05-06T13:16:43;8;8;
49914;PMS5003;35806;47.958;13.158;2023-05-06T13:19:12;8;8;
49914;PMS5003;35806;47.958;13.158;2023-05-06T13:21:39;10;9;
49914;PMS5003;35806;47.958;13.158;2023-05-06T13:24:07;10;9;
49914;PMS5003;35806;47.958;13.158;2023-05-06T13:26:34;7;7;
49914;PMS5003;35806;47.958;13.158;2023-05-06T13:29:01;9;9;
49914;PMS5003;35806;47.958;13.158;2023-05-06T13:31:29;7;7;
49914;PMS5003;35806;47.958;13.158;2023-05-06T13:33:56;8;8;
49914;PMS5003;35806;47.958;13.158;2023-05-06T13:36:24;8;8;
49914;PMS5003;35806;47.958;13.158;2023-05-06T13:38:51;9;9;
49914;PMS5003;35806;47.958;13.158;2023-05-06T13:41:18;6;6;
49914;PMS5003;35806;47.958;13.158;2023-05-06T13:43:45;6;6;
49914;PMS5003;35806;47.958;13.158;2023-05-06T13:46:12;7;7;
49914;PMS5003;35806;47.958;13.158;2023-05-06T13:48:40;8;8;
49914;PMS5003;35806;47.958;13.158;2023-05-06T13:51:08;10;8;
49914;PMS5003;35806;47.958;13.158;2023-05-06T13:53:35;11;9;
49914;PMS5003;35806;47.958;13.158;2023-05-06T13:56:03;8;8;
49914;PMS5003;35806;47.958;13.158;2023-05-06T13:58:30;8;8;
49914;PMS5003;35806;47.958;13.158;2023-05-06T14:00:58;6;6;
49914;PMS5003;35806;47.958;13.158;2023-05-06T14:03:25;9;7;
49914;PMS5003;35806;47.958;13.158;2023-05-06T14:05:52;10;9;
49914;PMS5003;35806;47.958;13.158;2023-05-06T14:08:20;7;6;
49914;PMS5003;35806;47.958;13.158;2023-05-06T14:10:48;7;7;
49914;PMS5003;35806;47.958;13.158;2023-05-06T14:13:15;9;8;
49914;PMS5003;35806;47.958;13.158;2023-05-06T14:15:43;10;8;
49914;PMS5003;35806;47.958;13.158;2023-05-06T14:18:11;7;7;
49914;PMS5003;35806;47.958;13.158;2023-05-06T14:20:38;4;4;
49914;PMS5003;35806;47.958;13.158;2023-05-06T14:23:06;7;7;
49914;PMS5003;35806;47.958;13.158;2023-05-06T14:25:33;8;8;
49914;PMS5003;35806;47.958;13.158;2023-05-06T14:28:01;8;8;
49914;PMS5003;35806;47.958;13.158;2023-05-06T14:30:28;6;6;
49914;PMS5003;35806;47.958;13.158;2023-05-06T14:32:56;8;7;
49914;PMS5003;35806;47.958;13.158;2023-05-06T14:35:23;5;5;
49914;PMS5003;35806;47.958;13.158;2023-05-06T14:37:51;8;8;
49914;PMS5003;35806;47.958;13.158;2023-05-06T14:40:19;7;7;
49914;PMS5003;35806;47.958;13.158;2023-05-06T14:42:46;6;6;
49914;PMS5003;35806;47.958;13.158;2023-05-06T14:45:13;8;6;
49914;PMS5003;35806;47.958;13.158;2023-05-06T14:47:41;7;7;
49914;PMS5003;35806;47.958;13.158;2023-05-06T14:50:09;7;7;
49914;PMS5003;35806;47.958;13.158;2023-05-06T14:52:38;5;5;
49914;PMS5003;35806;47.958;13.158;2023-05-06T14:55:06;7;7;
49914;PMS5003;35806;47.958;13.158;2023-05-06T14:57:35;6;6;
49914;PMS5003;35806;47.958;13.158;2023-05-06T15:00:03;10;9;
49914;PMS5003;35806;47.958;13.158;2023-05-06T15:02:31;7;7;
49914;PMS5003;35806;47.958;13.158;2023-05-06T15:04:59;10;8;
49914;PMS5003;35806;47.958;13.158;2023-05-06T15:07:26;6;6;
49914;PMS5003;35806;47.958;13.158;2023-05-06T15:09:54;6;6;
49914;PMS5003;35806;47.958;13.158;2023-05-06T15:12:21;5;5;
49914;PMS5003;35806;47.958;13.158;2023-05-06T15:14:49;7;7;
49914;PMS5003;35806;47.958;13.158;2023-05-06T15:17:16;8;8;
49914;PMS5003;35806;47.958;13.158;2023-05-06T15:19:45;8;7;
49914;PMS5003;35806;47.958;13.158;2023-05-06T15:22:12;8;7;
49914;PMS5003;35806;47.958;13.158;2023-05-06T15:24:39;12;12;
49914;PMS5003;35806;47.958;13.158;2023-05-06T15:27:07;10;10;
49914;PMS5003;35806;47.958;13.158;2023-05-06T15:29:36;7;7;
49914;PMS5003;35806;47.958;13.158;2023-05-06T15:32:04;5;5;
49914;PMS5003;35806;47.958;13.158;2023-05-06T15:34:31;8;8;
49914;PMS5003;35806;47.958;13.158;2023-05-06T15:36:59;9;8;
49914;PMS5003;35806;47.958;13.158;2023-05-06T15:39:26;6;6;
49914;PMS5003;35806;47.958;13.158;2023-05-06T15:41:54;8;8;
49914;PMS5003;35806;47.958;13.158;2023-05-06T15:44:24;8;7;
49914;PMS5003;35806;47.958;13.158;2023-05-06T15:46:51;8;7;
49914;PMS5003;35806;47.958;13.158;2023-05-06T15:49:24;8;8;
49914;PMS5003;35806;47.958;13.158;2023-05-06T15:51:51;8;8;
49914;PMS5003;35806;47.958;13.158;2023-05-06T15:54:18;9;7;
49914;PMS5003;35806;47.958;13.158;2023-05-06T15:56:45;9;8;
49914;PMS5003;35806;47.958;13.158;2023-05-06T15:59:13;7;7;
49914;PMS5003;35806;47.958;13.158;2023-05-06T16:01:40;7;7;
49914;PMS5003;35806;47.958;13.158;2023-05-06T16:04:08;8;6;
49914;PMS5003;35806;47.958;13.158;2023-05-06T16:06:35;7;7;
49914;PMS5003;35806;47.958;13.158;2023-05-06T16:09:03;8;6;
49914;PMS5003;35806;47.958;13.158;2023-05-06T16:11:30;7;7;
49914;PMS5003;35806;47.958;13.158;2023-05-06T16:13:58;9;8;
49914;PMS5003;35806;47.958;13.158;2023-05-06T16:16:25;8;8;
49914;PMS5003;35806;47.958;13.158;2023-05-06T16:18:53;8;8;
49914;PMS5003;35806;47.958;13.158;2023-05-06T16:21:20;11;8;
49914;PMS5003;35806;47.958;13.158;2023-05-06T16:23:48;6;6;
49914;PMS5003;35806;47.958;13.158;2023-05-06T16:26:15;7;7;
49914;PMS5003;35806;47.958;13.158;2023-05-06T16:28:43;7;7;
49914;PMS5003;35806;47.958;13.158;2023-05-06T16:31:10;7;7;
49914;PMS5003;35806;47.958;13.158;2023-05-06T16:33:38;8;8;
49914;PMS5003;35806;47.958;13.158;2023-05-06T16:36:05;8;8;
49914;PMS5003;35806;47.958;13.158;2023-05-06T16:38:33;8;8;
49914;PMS5003;35806;47.958;13.158;2023-05-06T16:41:01;8;8;
49914;PMS5003;35806;47.958;13.158;2023-05-06T16:43:28;7;7;
49914;PMS5003;35806;47.958;13.158;2023-05-06T16:45:56;8;8;
49914;PMS5003;35806;47.958;13.158;2023-05-06T16:48:23;6;6;
49914;PMS5003;35806;47.958;13.158;2023-05-06T16:50:51;7;6;
49914;PMS5003;35806;47.958;13.158;2023-05-06T16:53:18;10;8;